Time;durP1;ratioP1;P1;durP2;ratioP2;P2;SDS_P1;SDS_P2;PMS_P1;PMS_P2;Temp;Humidity;BMP_temperature;BMP_pressure;BME280_temperature;BME280_humidity;BME280_pressure;Samples;Min_cycle;Max_cycle;Signal;HPM_P1;HPM_P2
2021/11/04 00:01:52;;;;;;;;;;;;;;;19.13;63.05;100772.84;5005192;28;1695;-40
2021/11/04 00:04:25;;;;;;;;;;;;;;;19.21;63.33;100770.34;4998320;28;1906;-40
2021/11/04 00:06:56;;;;;;;;;;;;;;;19.16;63.14;100778.78;5014003;28;2391;-41
2021/11/04 00:09:23;;;;;;;;;;;;;;;19.12;63.24;100782.72;5010790;28;1836;-40
2021/11/04 00:11:54;;;;;;;;;;;;;;;19.15;63.47;100798.53;5008783;28;1968;-40
2021/11/04 00:14:20;;;;;;;;;;;;;;;19.10;63.96;100798.09;5009417;28;2329;-40
2021/11/04 00:16:49;;;;;;;;;;;;;;;19.17;63.47;100803.75;5009418;28;1422;-40
2021/11/04 00:19:17;;;;;;;;;;;;;;;19.11;62.28;100785.53;5000451;28;1597;-40
2021/11/04 00:21:44;;;;;;;;;;;;;;;19.15;64.04;100795.00;5005032;28;1758;-40
2021/11/04 00:24:17;;;;;;;;;;;;;;;19.12;63.06;100787.22;5003442;28;1882;-40
2021/11/04 00:26:44;;;;;;;;;;;;;;;19.12;63.53;100788.09;5004319;28;1901;-40
2021/11/04 00:29:13;;;;;;;;;;;;;;;19.15;62.69;100763.69;5014191;28;1883;-41
2021/11/04 00:31:43;;;;;;;;;;;;;;;19.11;61.99;100777.50;5004838;28;1624;-40
2021/11/04 00:34:11;;;;;;;;;;;;;;;19.08;62.31;100771.44;5008784;28;1575;-40
2021/11/04 00:36:38;;;;;;;;;;;;;;;19.07;62.57;100769.72;4999293;28;1653;-40
2021/11/04 00:39:09;;;;;;;;;;;;;;;19.08;63.49;100763.38;5006752;28;995;-40
2021/11/04 00:41:41;;;;;;;;;;;;;;;19.10;63.24;100757.03;5010576;28;1847;-40
2021/11/04 00:44:12;;;;;;;;;;;;;;;19.15;63.26;100770.88;4996004;28;1991;-40
2021/11/04 00:46:39;;;;;;;;;;;;;;;19.08;63.25;100758.03;5000027;28;1832;-40
2021/11/04 00:49:07;;;;;;;;;;;;;;;19.08;62.53;100779.47;5008871;28;1814;-40
2021/11/04 00:51:33;;;;;;;;;;;;;;;19.06;62.54;100761.84;4996969;28;1885;-40
2021/11/04 00:54:00;;;;;;;;;;;;;;;19.09;62.99;100772.28;5009481;28;1679;-41
2021/11/04 00:56:27;;;;;;;;;;;;;;;19.08;63.66;100771.44;5013105;28;1934;-40
2021/11/04 00:59:00;;;;;;;;;;;;;;;19.17;61.46;100759.03;4997207;28;1817;-40
2021/11/04 01:01:26;;;;;;;;;;;;;;;19.16;62.28;100772.56;4999511;28;1925;-41
2021/11/04 01:03:54;;;;;;;;;;;;;;;19.21;61.40;100770.34;5017025;28;2003;-40
2021/11/04 01:06:22;;;;;;;;;;;;;;;19.16;61.94;100772.56;5011446;28;1497;-40
2021/11/04 01:08:51;;;;;;;;;;;;;;;19.07;61.65;100769.72;4998919;28;1084;-40
2021/11/04 01:11:18;;;;;;;;;;;;;;;19.14;62.03;100777.22;5007627;28;1835;-40
2021/11/04 01:13:49;;;;;;;;;;;;;;;19.08;63.01;100776.78;5012738;28;1867;-40
2021/11/04 01:16:23;;;;;;;;;;;;;;;19.12;61.62;100765.78;5012736;28;1674;-40
2021/11/04 01:18:50;;;;;;;;;;;;;;;19.07;62.65;100772.41;5011908;28;1821;-40
2021/11/04 01:21:17;;;;;;;;;;;;;;;19.11;63.19;100774.81;5013414;28;1860;-40
2021/11/04 01:23:43;;;;;;;;;;;;;;;19.08;62.07;100776.78;5006267;28;1906;-40
2021/11/04 01:26:31;;;;;;;;;;;;;;;19.03;62.77;100773.66;5003817;28;1836;-40
2021/11/04 01:28:58;;;;;;;;;;;;;;;19.00;63.20;100784.66;4999923;28;1784;-40
2021/11/04 01:31:32;;;;;;;;;;;;;;;19.01;63.09;100783.66;5011798;28;1626;-40
2021/11/04 01:33:59;;;;;;;;;;;;;;;19.03;61.81;100788.91;5011351;28;1592;-40
2021/11/04 01:36:25;;;;;;;;;;;;;;;19.07;62.44;100796.53;5009895;28;1696;-40
2021/11/04 01:38:53;;;;;;;;;;;;;;;19.03;62.84;100795.09;5003461;28;1606;-40
2021/11/04 01:41:21;;;;;;;;;;;;;;;19.06;61.40;100777.91;5006789;28;1840;-40
2021/11/04 01:43:48;;;;;;;;;;;;;;;19.08;63.59;100792.88;5003779;28;1654;-40
2021/11/04 01:46:15;;;;;;;;;;;;;;;19.04;62.01;100802.16;5004147;28;1911;-40
2021/11/04 01:48:45;;;;;;;;;;;;;;;19.00;62.32;100800.75;5010423;28;2152;-40
2021/11/04 01:51:12;;;;;;;;;;;;;;;19.01;62.28;100799.75;5013202;28;1726;-40
2021/11/04 01:53:39;;;;;;;;;;;;;;;19.03;62.29;100800.44;4995139;28;1824;-40
2021/11/04 01:58:48;;;;;;;;;;;;;;;19.06;61.54;100820.81;5000980;28;2303;-40
2021/11/04 02:01:15;;;;;;;;;;;;;;;19.01;61.42;100806.94;4969488;28;1424;-40
2021/11/04 02:03:45;;;;;;;;;;;;;;;19.25;61.87;100818.16;5010937;28;1770;-40
2021/11/04 02:06:15;;;;;;;;;;;;;;;19.85;60.64;100818.19;4994434;28;1969;-40
2021/11/04 02:08:45;;;;;;;;;;;;;;;20.01;59.01;100820.31;5002909;28;1143;-40
2021/11/04 02:11:17;;;;;;;;;;;;;;;20.27;59.64;100812.56;5010722;28;1747;-40
2021/11/04 02:13:53;;;;;;;;;;;;;;;20.19;60.15;100807.06;4996608;28;1929;-40
2021/11/04 02:16:31;;;;;;;;;;;;;;;20.00;59.92;100810.59;5012501;28;1739;-40
2021/11/04 02:19:10;;;;;;;;;;;;;;;19.72;60.12;100816.78;5013219;28;1753;-40
2021/11/04 02:21:40;;;;;;;;;;;;;;;19.66;61.24;100813.63;5000029;28;1756;-40
2021/11/04 02:24:16;;;;;;;;;;;;;;;19.95;60.00;100834.31;5009396;28;1968;-40
2021/11/04 02:26:46;;;;;;;;;;;;;;;19.99;60.47;100824.97;5009777;28;1698;-40
2021/11/04 02:29:16;;;;;;;;;;;;;;;19.84;60.38;100832.59;4996997;28;1755;-41
2021/11/04 02:31:45;;;;;;;;;;;;;;;19.71;60.67;100840.06;5011948;28;1817;-40
2021/11/04 02:34:14;;;;;;;;;;;;;;;19.69;60.49;100828.59;5013152;28;1666;-40
2021/11/04 02:36:42;;;;;;;;;;;;;;;19.82;60.47;100834.59;5009809;28;1512;-40
2021/11/04 02:39:09;;;;;;;;;;;;;;;19.89;61.58;100834.03;4999559;28;1613;-40
2021/11/04 02:41:37;;;;;;;;;;;;;;;19.94;61.37;100861.31;5009193;28;2190;-40
2021/11/04 02:44:15;;;;;;;;;;;;;;;19.90;60.55;100841.09;5022084;28;1770;-40
2021/11/04 02:46:43;;;;;;;;;;;;;;;19.65;61.00;100843.28;4998862;28;1910;-40
2021/11/04 02:49:11;;;;;;;;;;;;;;;19.75;60.77;100849.53;5006758;28;1724;-40
2021/11/04 02:51:40;;;;;;;;;;;;;;;19.86;60.59;100854.78;5002180;28;1678;-40
2021/11/04 02:54:11;;;;;;;;;;;;;;;19.82;61.31;100839.94;5009655;28;1607;-40
2021/11/04 02:56:45;;;;;;;;;;;;;;;19.63;61.30;100847.94;4994414;28;1777;-40
2021/11/04 02:59:14;;;;;;;;;;;;;;;19.74;61.19;100847.84;5007297;28;1790;-40
2021/11/04 03:01:44;;;;;;;;;;;;;;;19.84;61.07;100846.03;5121365;23;3619;-40
2021/11/04 03:04:15;;;;;;;;;;;;;;;19.72;61.13;100852.50;5030623;28;2050;-40
2021/11/04 03:06:43;;;;;;;;;;;;;;;19.73;61.29;100851.50;5031295;28;1265;-40
2021/11/04 03:09:23;;;;;;;;;;;;;;;19.93;60.88;100846.16;5032114;28;1053;-40
2021/11/04 03:11:50;;;;;;;;;;;;;;;19.83;61.78;100857.72;5031433;28;1841;-40
2021/11/04 03:14:23;;;;;;;;;;;;;;;19.70;62.15;100858.97;5031715;28;1603;-40
2021/11/04 03:16:54;;;;;;;;;;;;;;;19.58;61.68;100847.50;5031627;28;1595;-40
2021/11/04 03:19:24;;;;;;;;;;;;;;;19.84;61.40;100832.59;5031995;28;1292;-40
2021/11/04 03:21:54;;;;;;;;;;;;;;;19.84;60.36;100845.19;5031471;28;1711;-40
2021/11/04 03:24:26;;;;;;;;;;;;;;;19.80;60.85;100851.81;5022742;28;1975;-40
2021/11/04 03:26:55;;;;;;;;;;;;;;;19.73;61.53;100851.50;5031668;28;1619;-40
2021/11/04 03:29:40;;;;;;;;;;;;;;;19.84;61.44;100856.75;5031383;28;1627;-40
2021/11/04 03:32:13;;;;;;;;;;;;;;;19.88;60.55;100861.88;5030062;28;1389;-40
2021/11/04 03:34:40;;;;;;;;;;;;;;;19.68;60.99;100859.94;5035702;28;1568;-40
2021/11/04 03:37:08;;;;;;;;;;;;;;;19.77;60.83;100863.66;5034916;28;1821;-40
2021/11/04 03:39:45;;;;;;;;;;;;;;;19.86;59.78;100860.16;5034745;28;1398;-40
2021/11/04 03:42:13;;;;;;;;;;;;;;;19.77;61.52;100869.03;5033303;28;1456;-40
2021/11/04 03:44:40;;;;;;;;;;;;;;;19.66;60.97;100871.81;5027467;28;1977;-40
2021/11/04 03:47:16;;;;;;;;;;;;;;;19.76;61.08;100872.72;5034529;28;1839;-40
2021/11/04 03:49:49;;;;;;;;;;;;;;;19.79;60.05;100861.69;5031217;28;1500;-40
2021/11/04 03:52:15;;;;;;;;;;;;;;;19.80;60.47;100878.66;5034799;28;1442;-40
2021/11/04 03:54:44;;;;;;;;;;;;;;;19.69;60.99;100876.88;5031085;28;1789;-40
2021/11/04 03:57:12;;;;;;;;;;;;;;;19.93;59.86;100891.81;5034301;28;1311;-40
2021/11/04 03:59:40;;;;;;;;;;;;;;;19.92;60.91;100888.28;5034568;28;1630;-40
2021/11/04 04:02:16;;;;;;;;;;;;;;;19.75;61.74;100899.66;5026010;28;1335;-40
2021/11/04 04:05:07;;;;;;;;;;;;;;;19.45;62.50;100894.16;5034547;28;1914;-40
2021/11/04 04:07:43;;;;;;;;;;;;;;;19.61;62.36;100898.19;5034671;28;1837;-40
2021/11/04 04:10:20;;;;;;;;;;;;;;;19.81;62.24;100905.31;5034021;28;1468;-40
2021/11/04 04:12:47;;;;;;;;;;;;;;;19.48;63.02;100907.31;5030004;28;1884;-40
2021/11/04 04:15:13;;;;;;;;;;;;;;;19.56;62.43;100893.25;5031804;28;1715;-40
2021/11/04 04:17:41;;;;;;;;;;;;;;;19.78;62.26;100892.19;5032966;28;1433;-40
2021/11/04 04:20:08;;;;;;;;;;;;;;;19.87;62.57;100901.25;5026785;28;1536;-40
2021/11/04 04:22:34;;;;;;;;;;;;;;;19.64;63.11;100893.41;5026507;28;1559;-40
2021/11/04 04:25:02;;;;;;;;;;;;;;;19.44;63.62;100899.69;5029982;28;1894;-40
2021/11/04 04:27:32;;;;;;;;;;;;;;;19.66;63.06;100904.84;5033131;28;1495;-40
2021/11/04 04:29:59;;;;;;;;;;;;;;;19.90;61.92;100905.50;5032512;28;1480;-40
2021/11/04 04:32:26;;;;;;;;;;;;;;;19.55;63.72;100910.31;5031045;28;1598;-40
2021/11/04 04:34:55;;;;;;;;;;;;;;;19.49;63.88;100908.16;5034709;28;1072;-40
2021/11/04 04:37:23;;;;;;;;;;;;;;;19.72;62.51;100905.31;5027177;28;1723;-40
2021/11/04 04:39:51;;;;;;;;;;;;;;;19.76;62.41;100917.47;5029157;28;1469;-40
2021/11/04 04:42:21;;;;;;;;;;;;;;;19.52;62.96;100901.66;5033603;28;1682;-41
2021/11/04 04:44:47;;;;;;;;;;;;;;;19.39;63.54;100892.03;5030591;28;1906;-40
2021/11/04 04:47:15;;;;;;;;;;;;;;;19.65;63.28;100902.28;5033887;28;1158;-40
2021/11/04 04:49:43;;;;;;;;;;;;;;;19.78;63.53;100896.72;5029664;28;1752;-40
2021/11/04 04:52:12;;;;;;;;;;;;;;;19.48;64.38;100904.63;5030177;28;1722;-40
2021/11/04 04:54:40;;;;;;;;;;;;;;;19.50;64.33;100909.00;5028086;28;1823;-40
2021/11/04 04:57:07;;;;;;;;;;;;;;;19.65;63.46;100900.44;5033331;28;1523;-40
2021/11/04 04:59:36;;;;;;;;;;;;;;;19.65;64.02;100899.59;5031780;28;1933;-40
2021/11/04 05:02:02;;;;;;;;;;;;;;;19.39;64.73;100901.91;5033000;28;1731;-40
2021/11/04 05:04:29;;;;;;;;;;;;;;;19.55;63.62;100920.19;5032284;28;1877;-40
2021/11/04 05:06:57;;;;;;;;;;;;;;;19.71;63.59;100903.59;5032962;28;1902;-40
2021/11/04 05:09:24;;;;;;;;;;;;;;;19.61;63.78;100906.22;5033514;28;1479;-40
2021/11/04 05:11:54;;;;;;;;;;;;;;;19.48;64.27;100907.31;5032991;28;1415;-40
2021/11/04 05:14:23;;;;;;;;;;;;;;;19.50;64.79;100917.06;5019087;28;1772;-40
2021/11/04 05:16:51;;;;;;;;;;;;;;;19.69;63.18;100941.28;5032695;28;2052;-40
2021/11/04 05:19:18;;;;;;;;;;;;;;;19.82;63.33;100931.19;5033304;28;1443;-40
2021/11/04 05:21:46;;;;;;;;;;;;;;;19.39;64.09;100940.31;5032932;28;1575;-40
2021/11/04 05:24:13;;;;;;;;;;;;;;;19.70;63.50;100939.47;5027434;28;2785;-40
2021/11/04 05:26:41;;;;;;;;;;;;;;;19.97;62.36;100938.84;5031163;28;1913;-40
2021/11/04 05:29:08;;;;;;;;;;;;;;;19.94;63.62;100944.50;5030750;28;1824;-40
2021/11/04 05:31:34;;;;;;;;;;;;;;;19.82;63.20;100941.09;5028414;28;1636;-40
2021/11/04 05:34:01;;;;;;;;;;;;;;;19.91;62.51;100917.94;5032614;28;1169;-40
2021/11/04 05:36:28;;;;;;;;;;;;;;;20.05;63.76;100944.38;5004579;28;11024;-40
2021/11/04 05:38:54;;;;;;;;;;;;;;;19.82;62.71;100952.66;4992242;28;1525;-40
2021/11/04 05:41:21;;;;;;;;;;;;;;;19.75;63.71;100938.06;4981848;28;1509;-41
2021/11/04 05:43:49;;;;;;;;;;;;;;;20.04;62.56;100924.75;4983185;28;1718;-40
2021/11/04 05:46:15;;;;;;;;;;;;;;;20.12;62.54;100936.63;4987034;28;1889;-40
2021/11/04 05:48:42;;;;;;;;;;;;;;;19.99;63.80;100945.75;4982999;28;1699;-40
2021/11/04 05:51:08;;;;;;;;;;;;;;;19.90;63.31;100933.19;4994620;28;1351;-40
2021/11/04 05:53:35;;;;;;;;;;;;;;;20.19;62.68;100943.13;4989403;28;1998;-40
2021/11/04 05:56:02;;;;;;;;;;;;;;;20.22;63.16;100932.97;4986352;28;1665;-40
2021/11/04 05:58:28;;;;;;;;;;;;;;;20.05;64.16;100926.44;4986801;28;1658;-40
2021/11/04 06:00:56;;;;;;;;;;;;;;;19.95;63.68;100935.44;4978950;28;1797;-40
2021/11/04 06:03:23;;;;;;;;;;;;;;;20.14;64.02;100932.81;4982266;28;1642;-40
2021/11/04 06:05:49;;;;;;;;;;;;;;;20.03;63.24;100939.16;4984182;28;1977;-40
2021/11/04 06:08:15;;;;;;;;;;;;;;;19.84;63.78;100958.75;4986199;28;1492;-40
2021/11/04 06:10:42;;;;;;;;;;;;;;;19.88;64.53;100951.28;4980908;28;1704;-40
2021/11/04 06:13:09;;;;;;;;;;;;;;;20.20;64.28;100939.47;4984437;28;2063;-40
2021/11/04 06:15:36;;;;;;;;;;;;;;;20.30;63.38;100944.84;4980944;28;1837;-41
2021/11/04 06:18:04;;;;;;;;;;;;;;;20.01;64.41;100946.47;4985280;28;1673;-40
2021/11/04 06:20:30;;;;;;;;;;;;;;;19.93;63.63;100940.09;4983916;28;1626;-40
2021/11/04 06:22:57;;;;;;;;;;;;;;;20.16;63.60;100943.41;4988355;28;1546;-40
2021/11/04 06:25:23;;;;;;;;;;;;;;;20.43;63.60;100943.59;4988230;28;1977;-40
2021/11/04 06:27:50;;;;;;;;;;;;;;;20.15;64.42;100952.44;4986632;28;1767;-40
2021/11/04 06:30:17;;;;;;;;;;;;;;;20.11;63.68;100945.66;4982398;28;1461;-41
2021/11/04 06:32:43;;;;;;;;;;;;;;;20.31;64.57;100949.22;4983891;28;1530;-40
2021/11/04 06:35:12;;;;;;;;;;;;;;;20.52;62.90;100968.75;4992663;28;1334;-40
2021/11/04 06:37:39;;;;;;;;;;;;;;;20.44;64.02;100965.94;4988758;28;1577;-40
2021/11/04 06:40:08;;;;;;;;;;;;;;;20.23;63.57;100953.47;4988546;28;1484;-39
2021/11/04 06:42:36;;;;;;;;;;;;;;;20.21;64.20;100979.63;4990345;28;1535;-40
2021/11/04 06:45:04;;;;;;;;;;;;;;;20.62;63.15;100961.56;4988627;28;1621;-39
2021/11/04 06:47:33;;;;;;;;;;;;;;;20.64;64.01;100975.72;4985633;28;1968;-40
2021/11/04 06:50:11;;;;;;;;;;;;;;;20.42;65.18;100973.28;4992800;28;1047;-40
2021/11/04 06:52:50;;;;;;;;;;;;;;;20.27;64.76;100973.69;4981714;28;1515;-40
2021/11/04 06:55:21;;;;;;;;;;;;;;;20.49;64.21;100976.25;4990939;28;1496;-40
2021/11/04 06:57:51;;;;;;;;;;;;;;;20.79;63.58;100984.22;4989547;28;1317;-40
2021/11/04 07:00:19;;;;;;;;;;;;;;;20.65;64.77;100982.81;4987770;28;1505;-40
2021/11/04 07:02:54;;;;;;;;;;;;;;;20.43;64.40;100978.53;4990282;28;1538;-40
2021/11/04 07:05:23;;;;;;;;;;;;;;;20.31;65.10;100976.91;4992653;28;1112;-40
2021/11/04 07:08:07;;;;;;;;;;;;;;;20.64;64.23;100977.56;4994042;28;1974;-40
2021/11/04 07:10:45;;;;;;;;;;;;;;;20.70;63.81;100986.91;4985841;28;1325;-40
2021/11/04 07:13:14;;;;;;;;;;;;;;;20.41;65.66;100980.50;4976427;28;1177;-40
2021/11/04 07:18:23;;;;;;;;;;;;;;;20.52;65.05;100971.44;4992762;28;1598;-40
2021/11/04 07:20:57;;;;;;;;;;;;;;;20.68;64.57;100967.38;4995768;28;1596;-40
2021/11/04 07:23:29;;;;;;;;;;;;;;;20.50;64.54;100975.28;4993462;28;1625;-40
2021/11/04 07:26:02;;;;;;;;;;;;;;;20.30;65.88;100966.34;4995666;28;1906;-40
2021/11/04 07:28:30;;;;;;;;;;;;;;;20.34;65.32;100962.38;4990423;28;1892;-40
2021/11/04 07:31:07;;;;;;;;;;;;;;;20.82;63.70;100956.19;4992982;28;1611;-40
2021/11/04 07:33:49;;;;;;;;;;;;;;;20.61;64.83;100959.03;4993885;28;1777;-40
2021/11/04 07:36:16;;;;;;;;;;;;;;;20.46;64.40;100969.31;4982732;28;1544;-40
2021/11/04 07:38:45;;;;;;;;;;;;;;;20.39;64.51;100966.34;4979306;28;1051;-39
2021/11/04 07:41:19;;;;;;;;;;;;;;;20.59;65.16;100964.56;4994924;28;1371;-40
2021/11/04 07:43:49;;;;;;;;;;;;;;;20.76;64.32;100949.53;4981807;28;1656;-40
2021/11/04 07:46:20;;;;;;;;;;;;;;;20.57;65.51;100966.50;4987383;28;2087;-40
2021/11/04 07:48:49;;;;;;;;;;;;;;;20.45;65.74;100959.56;4993924;28;1748;-40
2021/11/04 07:51:15;;;;;;;;;;;;;;;20.29;66.16;100951.19;4992617;28;1813;-40
2021/11/04 07:53:46;;;;;;;;;;;;;;;20.65;64.99;100939.81;4990375;28;1801;-40
2021/11/04 07:56:15;;;;;;;;;;;;;;;20.71;64.92;100948.28;4982374;28;1759;-40
2021/11/04 07:58:42;;;;;;;;;;;;;;;20.59;65.55;100959.19;4992413;28;1394;-40
2021/11/04 08:01:09;;;;;;;;;;;;;;;20.37;66.09;100962.09;4991489;28;1814;-39
2021/11/04 08:03:35;;;;;;;;;;;;;;;20.37;66.08;100962.97;4994194;28;1424;-40
2021/11/04 08:06:06;;;;;;;;;;;;;;;20.75;65.79;100960.44;4993682;28;1975;-40
2021/11/04 08:08:37;;;;;;;;;;;;;;;21.00;63.90;100935.66;4975849;28;1128;-40
2021/11/04 08:11:07;;;;;;;;;;;;;;;20.78;65.22;100938.66;4980987;28;1435;-40
2021/11/04 08:13:43;;;;;;;;;;;;;;;20.56;65.26;100934.41;4995097;28;1592;-40
2021/11/04 08:16:10;;;;;;;;;;;;;;;20.32;65.84;100937.50;4992973;28;1854;-40
2021/11/04 08:18:37;;;;;;;;;;;;;;;20.44;67.31;100942.59;4985658;28;1651;-40
2021/11/04 08:21:05;;;;;;;;;;;;;;;20.79;65.80;100940.34;4994920;28;1612;-39
2021/11/04 08:23:52;;;;;;;;;;;;;;;20.77;65.46;100931.56;4994970;28;1612;-40
2021/11/04 08:26:27;;;;;;;;;;;;;;;20.61;66.02;100943.78;4992192;28;1993;-40
2021/11/04 08:29:08;;;;;;;;;;;;;;;20.46;66.71;100929.03;4993559;28;1851;-40
2021/11/04 08:31:35;;;;;;;;;;;;;;;20.47;67.09;100919.97;4986505;28;1513;-40
2021/11/04 08:34:04;;;;;;;;;;;;;;;21.06;64.98;100918.94;4989484;28;2559;-39
2021/11/04 08:36:30;;;;;;;;;;;;;;;20.98;65.73;100934.94;4991751;28;1676;-40
2021/11/04 08:38:58;;;;;;;;;;;;;;;20.71;66.73;100938.41;4989178;28;1934;-41
2021/11/04 08:41:25;;;;;;;;;;;;;;;20.62;66.86;100934.69;4976818;28;1831;-40
2021/11/04 08:43:52;;;;;;;;;;;;;;;20.53;67.89;100940.91;4983384;28;1630;-39
2021/11/04 08:46:22;;;;;;;;;;;;;;;20.48;67.82;100937.78;4985669;28;1906;-40
2021/11/04 08:48:49;;;;;;;;;;;;;;;20.85;66.15;100937.09;4984371;28;1613;-39
2021/11/04 08:51:25;;;;;;;;;;;;;;;20.97;65.85;100938.63;4982425;28;1579;-40
2021/11/04 08:53:53;;;;;;;;;;;;;;;20.78;66.01;100926.06;4990026;28;1601;-39
2021/11/04 08:56:21;;;;;;;;;;;;;;;20.63;66.08;100925.66;4986118;28;1689;-40
2021/11/04 08:58:49;;;;;;;;;;;;;;;20.58;66.41;100922.50;4978145;28;1551;-40
2021/11/04 09:04:05;;;;;;;;;;;;;;;20.67;66.43;100910.09;4983344;28;2383;-39
2021/11/04 09:06:31;;;;;;;;;;;;;;;21.34;64.39;100919.00;4992409;28;1910;-39
2021/11/04 09:09:01;;;;;;;;;;;;;;;21.14;64.83;100898.53;4980112;28;1524;-39
2021/11/04 09:11:28;;;;;;;;;;;;;;;20.80;65.75;100915.19;4980436;28;2069;-39
2021/11/04 09:13:54;;;;;;;;;;;;;;;20.61;66.98;100910.66;4976435;28;1688;-39
2021/11/04 09:16:21;;;;;;;;;;;;;;;20.48;66.22;100913.63;4984986;28;2137;-39
2021/11/04 09:18:47;;;;;;;;;;;;;;;20.53;66.94;100918.56;4987252;28;1748;-39
2021/11/04 09:21:15;;;;;;;;;;;;;;;20.52;66.17;100927.63;4985226;28;1569;-39
2021/11/04 09:23:42;;;;;;;;;;;;;;;20.99;64.83;100920.53;4990355;28;1696;-39
2021/11/04 09:26:08;;;;;;;;;;;;;;;21.34;63.55;100927.06;4984143;28;1926;-40
2021/11/04 09:28:35;;;;;;;;;;;;;;;20.98;64.64;100920.66;4986429;28;1961;-39
2021/11/04 09:31:01;;;;;;;;;;;;;;;20.70;65.52;100922.41;4982881;28;1842;-39
2021/11/04 09:33:28;;;;;;;;;;;;;;;20.56;66.78;100919.13;4990765;28;1641;-39
2021/11/04 09:35:54;;;;;;;;;;;;;;;20.55;65.79;100922.81;4984230;28;1638;-40
2021/11/04 09:38:22;;;;;;;;;;;;;;;20.36;65.92;100929.03;4985224;28;1406;-39
2021/11/04 09:40:48;;;;;;;;;;;;;;;20.30;67.12;100908.09;4987775;28;1942;-39
2021/11/04 09:43:15;;;;;;;;;;;;;;;20.86;64.18;100898.47;4984976;28;1820;-39
2021/11/04 09:45:42;;;;;;;;;;;;;;;20.78;64.94;100906.41;4984343;28;1975;-39
2021/11/04 09:48:08;;;;;;;;;;;;;;;20.54;65.09;100898.78;4981756;28;1995;-40
2021/11/04 09:50:35;;;;;;;;;;;;;;;20.39;66.20;100901.91;4986125;28;1019;-39
2021/11/04 09:53:01;;;;;;;;;;;;;;;20.25;66.57;100895.09;4981560;28;1709;-39
2021/11/04 09:55:30;;;;;;;;;;;;;;;20.24;67.01;100895.25;4983402;28;1833;-39
2021/11/04 09:57:57;;;;;;;;;;;;;;;20.42;65.85;100864.00;4984659;28;1625;-39
2021/11/04 10:00:31;;;;;;;;;;;;;;;20.80;64.44;100877.53;4984275;28;1460;-39
2021/11/04 10:03:02;;;;;;;;;;;;;;;20.64;64.52;100884.34;4984090;28;1777;-39
2021/11/04 10:05:28;;;;;;;;;;;;;;;20.52;65.37;100885.47;4990368;28;1040;-39
2021/11/04 10:07:55;;;;;;;;;;;;;;;20.34;66.12;100892.56;4981977;28;1899;-39
2021/11/04 10:10:21;;;;;;;;;;;;;;;20.24;66.11;100882.66;4991062;28;1982;-39
2021/11/04 10:13:03;;;;;;;;;;;;;;;20.21;65.74;100882.94;4985944;28;1063;-39
2021/11/04 10:15:30;;;;;;;;;;;;;;;20.43;65.12;100875.56;4983044;28;1977;-39
2021/11/04 10:18:16;;;;;;;;;;;;;;;20.91;63.82;100869.31;4985556;28;2375;-40
2021/11/04 10:20:43;;;;;;;;;;;;;;;20.68;64.63;100873.34;4975114;28;1004;-39
2021/11/04 10:23:10;;;;;;;;;;;;;;;20.52;65.13;100872.03;4981807;28;1805;-39
2021/11/04 10:25:37;;;;;;;;;;;;;;;20.45;65.02;100870.91;4981991;28;1892;-40
2021/11/04 10:28:18;;;;;;;;;;;;;;;20.21;64.82;100866.84;4984942;28;1973;-39
2021/11/04 10:30:46;;;;;;;;;;;;;;;20.21;65.72;100860.59;4979450;28;2144;-39
2021/11/04 10:33:20;;;;;;;;;;;;;;;20.59;64.12;100849.03;4984339;28;1848;-39
2021/11/04 10:35:50;;;;;;;;;;;;;;;20.90;62.51;100850.66;4992581;28;1170;-39
2021/11/04 10:38:17;;;;;;;;;;;;;;;20.71;62.90;100848.84;4985686;28;1039;-39
2021/11/04 10:40:43;;;;;;;;;;;;;;;20.54;63.95;100867.38;4980107;28;1616;-39
2021/11/04 10:43:10;;;;;;;;;;;;;;;20.33;64.93;100853.25;4988216;28;1675;-39
2021/11/04 10:45:36;;;;;;;;;;;;;;;20.34;64.95;100854.97;4986728;28;1640;-39
2021/11/04 10:48:17;;;;;;;;;;;;;;;20.27;65.54;100850.16;4985317;28;1984;-39
2021/11/04 10:50:44;;;;;;;;;;;;;;;20.81;63.02;100846.97;4987485;28;1062;-39
2021/11/04 10:53:11;;;;;;;;;;;;;;;20.84;63.00;100820.66;4985627;28;1704;-39
2021/11/04 10:55:38;;;;;;;;;;;;;;;20.63;63.39;100830.75;4985704;28;1898;-39
2021/11/04 10:58:07;;;;;;;;;;;;;;;20.45;64.99;100830.63;4987170;28;1917;-39
2021/11/04 11:00:39;;;;;;;;;;;;;;;20.36;65.05;100815.38;4985981;28;1335;-39
2021/11/04 11:03:13;;;;;;;;;;;;;;;20.44;64.26;100815.50;4984751;28;1865;-39
2021/11/04 11:05:45;;;;;;;;;;;;;;;20.40;64.33;100819.47;5003381;28;1474;-39
2021/11/04 11:08:15;;;;;;;;;;;;;;;20.37;64.26;100800.94;4984199;28;2046;-39
2021/11/04 11:10:42;;;;;;;;;;;;;;;20.43;64.04;100800.34;4994788;28;1696;-40
2021/11/04 11:13:12;;;;;;;;;;;;;;;20.34;65.26;100777.06;5000430;28;1305;-39
2021/11/04 11:15:40;;;;;;;;;;;;;;;20.34;65.38;100777.06;4993584;28;1999;-39
2021/11/04 11:18:08;;;;;;;;;;;;;;;20.48;64.28;100775.78;4989632;28;1768;-40
2021/11/04 11:20:44;;;;;;;;;;;;;;;20.33;64.79;100770.00;4981062;28;1516;-40
2021/11/04 11:23:19;;;;;;;;;;;;;;;20.36;64.31;100783.16;4979414;28;1305;-39
2021/11/04 11:25:50;;;;;;;;;;;;;;;20.35;64.82;100768.88;4981655;28;1589;-40
2021/11/04 11:28:18;;;;;;;;;;;;;;;20.37;65.44;100784.81;4994036;28;2020;-39
2021/11/04 11:31:02;;;;;;;;;;;;;;;20.47;65.08;100780.28;4991087;28;1622;-39
2021/11/04 11:33:32;;;;;;;;;;;;;;;20.35;65.53;100778.75;4976926;28;1561;-39
2021/11/04 11:36:37;;;;;;;;;;;;;;;20.36;64.59;100783.16;4977739;28;1610;-40
2021/11/04 11:39:11;;;;;;;;;;;;;;;20.36;64.76;100783.16;4986797;28;1491;-39
2021/11/04 11:42:08;;;;;;;;;;;;;;;20.40;64.94;100763.91;4994239;28;1605;-39
2021/11/04 11:44:41;;;;;;;;;;;;;;;20.31;64.85;100774.66;4989228;28;1498;-40
2021/11/04 11:47:16;;;;;;;;;;;;;;;20.30;65.14;100772.97;4986084;28;1906;-40
2021/11/04 11:49:44;;;;;;;;;;;;;;;20.33;65.56;100780.72;4994083;28;2054;-40
2021/11/04 11:52:31;;;;;;;;;;;;;;;20.49;64.84;100793.56;4989444;28;1739;-39
2021/11/04 11:55:09;;;;;;;;;;;;;;;20.47;65.97;100785.66;4991573;28;2221;-39
2021/11/04 11:57:36;;;;;;;;;;;;;;;20.46;66.15;100778.59;4985838;28;1639;-39
2021/11/04 12:00:04;;;;;;;;;;;;;;;20.53;65.08;100787.78;4987640;28;1650;-39
2021/11/04 12:02:38;;;;;;;;;;;;;;;20.42;65.75;100777.19;4983668;28;2088;-40
2021/11/04 12:05:23;;;;;;;;;;;;;;;20.39;65.49;100777.47;4996127;28;1681;-40
2021/11/04 12:07:50;;;;;;;;;;;;;;;20.32;65.60;100771.84;4985499;28;1968;-40
2021/11/04 12:10:32;;;;;;;;;;;;;;;20.33;65.88;100775.38;4992967;28;1560;-40
2021/11/04 12:13:04;;;;;;;;;;;;;;;20.41;65.93;100786.22;4985883;28;2465;-40
2021/11/04 12:15:53;;;;;;;;;;;;;;;20.56;65.55;100775.91;4992008;28;1896;-40
2021/11/04 12:18:20;;;;;;;;;;;;;;;20.48;66.34;100779.31;4986706;28;1935;-40
2021/11/04 12:20:57;;;;;;;;;;;;;;;20.42;66.34;100774.50;4996642;28;1069;-40
2021/11/04 12:23:33;;;;;;;;;;;;;;;20.30;66.73;100773.81;4979269;28;995;-40
2021/11/04 12:26:01;;;;;;;;;;;;;;;20.24;66.38;100772.56;4978568;28;1401;-40
2021/11/04 12:28:31;;;;;;;;;;;;;;;20.23;66.35;100778.06;4986747;28;1976;-41
2021/11/04 12:30:58;;;;;;;;;;;;;;;20.45;66.71;100766.16;4989807;28;1635;-41
2021/11/04 12:33:25;;;;;;;;;;;;;;;20.35;67.03;100759.94;4994042;28;1443;-40
2021/11/04 12:35:53;;;;;;;;;;;;;;;20.31;66.24;100774.66;4979930;28;1498;-41
2021/11/04 12:38:21;;;;;;;;;;;;;;;20.24;67.54;100767.19;4987434;28;1078;-41
2021/11/04 12:41:01;;;;;;;;;;;;;;;20.19;66.79;100766.78;4984339;28;1696;-41
2021/11/04 12:43:31;;;;;;;;;;;;;;;20.06;67.95;100756.31;4989508;28;1840;-40
2021/11/04 12:46:11;;;;;;;;;;;;;;;20.23;67.83;100760.13;4986594;28;1791;-40
2021/11/04 12:48:43;;;;;;;;;;;;;;;20.31;67.66;100755.88;4985492;28;1981;-40
2021/11/04 12:51:09;;;;;;;;;;;;;;;20.46;67.40;100747.22;4986823;28;1414;-40
2021/11/04 12:53:49;;;;;;;;;;;;;;;20.44;67.07;100743.81;4987195;28;1622;-40
2021/11/04 12:56:15;;;;;;;;;;;;;;;20.48;68.05;100760.50;4985992;28;1624;-41
2021/11/04 12:58:43;;;;;;;;;;;;;;;20.39;68.01;100755.97;4986839;28;959;-40
2021/11/04 13:01:10;;;;;;;;;;;;;;;20.31;67.02;100758.56;4987001;28;1972;-41
2021/11/04 13:03:44;;;;;;;;;;;;;;;20.30;67.12;100762.25;4987722;28;1652;-40
2021/11/04 13:06:22;;;;;;;;;;;;;;;20.49;67.70;100766.72;4980221;28;1614;-40
2021/11/04 13:08:51;;;;;;;;;;;;;;;20.38;68.20;100770.41;4976193;28;1910;-40
2021/11/04 13:11:19;;;;;;;;;;;;;;;20.33;67.27;100780.72;4982209;28;1786;-40